createdAt,value
2023-01-31T00:01:50.498Z,4.38
2023-01-31T00:04:18.135Z,4.21
2023-01-31T00:06:51.008Z,4.49
2023-01-31T00:09:19.372Z,4.60
2023-01-31T00:11:46.804Z,4.38
2023-01-31T00:14:19.076Z,4.45
2023-01-31T00:16:46.864Z,4.57
2023-01-31T00:19:14.226Z,4.50
2023-01-31T00:21:45.104Z,4.52
2023-01-31T00:24:14.057Z,4.49
2023-01-31T00:26:41.842Z,4.26
2023-01-31T00:29:09.538Z,4.50
2023-01-31T00:31:37.861Z,4.70
2023-01-31T00:34:06.158Z,4.65
2023-01-31T00:36:35.847Z,4.81
2023-01-31T00:39:05.367Z,4.78
2023-01-31T00:41:33.007Z,5.11
2023-01-31T00:44:00.900Z,4.77
2023-01-31T00:46:28.734Z,5.04
2023-01-31T00:48:56.711Z,4.97
2023-01-31T00:51:26.591Z,4.86
2023-01-31T00:53:55.087Z,4.79
2023-01-31T00:56:23.716Z,5.02
2023-01-31T00:58:51.768Z,4.95
2023-01-31T01:01:24.466Z,5.04
2023-01-31T01:03:52.830Z,4.89
2023-01-31T01:06:20.819Z,5.10
2023-01-31T01:08:48.491Z,5.05
2023-01-31T01:11:21.558Z,4.93
2023-01-31T01:13:50.176Z,4.94
2023-01-31T01:16:23.139Z,5.10
2023-01-31T01:18:51.138Z,4.80
2023-01-31T01:21:20.741Z,4.79
2023-01-31T01:23:49.024Z,4.50
2023-01-31T01:26:19.081Z,4.78
2023-01-31T01:28:47.205Z,4.93
2023-01-31T01:31:18.521Z,4.80
2023-01-31T01:33:47.976Z,4.80
2023-01-31T01:36:18.049Z,4.56
2023-01-31T01:38:45.928Z,4.82
2023-01-31T01:41:14.066Z,4.95
2023-01-31T01:43:52.090Z,4.63
2023-01-31T01:46:36.449Z,4.75
2023-01-31T01:49:13.516Z,4.94
2023-01-31T01:51:42.607Z,4.80
2023-01-31T01:54:14.110Z,4.95
2023-01-31T01:56:46.426Z,4.97
2023-01-31T01:59:24.296Z,5.21
2023-01-31T02:01:52.688Z,5.22
2023-01-31T02:04:25.920Z,5.01
2023-01-31T02:06:53.643Z,4.80
2023-01-31T02:09:39.551Z,4.84
2023-01-31T02:12:07.750Z,4.80
2023-01-31T02:14:36.065Z,4.72
2023-01-31T02:17:03.847Z,4.71
2023-01-31T02:19:40.731Z,4.80
2023-01-31T02:22:33.070Z,4.60
2023-01-31T02:25:24.867Z,4.88
2023-01-31T02:28:05.825Z,4.60
2023-01-31T02:30:48.773Z,5.10
2023-01-31T02:33:36.912Z,4.72
2023-01-31T02:36:12.824Z,4.75
2023-01-31T02:38:49.069Z,4.77
2023-01-31T02:41:39.839Z,4.82
2023-01-31T02:44:42.762Z,4.94
2023-01-31T02:47:28.847Z,4.92
2023-01-31T02:50:01.999Z,5.15
2023-01-31T02:52:33.160Z,5.08
2023-01-31T02:55:31.660Z,5.31
2023-01-31T02:58:00.893Z,5.65
2023-01-31T03:00:30.596Z,5.59
2023-01-31T03:02:58.226Z,5.52
2023-01-31T03:05:26.225Z,5.43
2023-01-31T03:07:56.139Z,5.43
2023-01-31T03:10:39.780Z,5.50
2023-01-31T03:13:32.985Z,5.19
2023-01-31T03:16:28.224Z,5.34
2023-01-31T03:19:25.166Z,5.41
2023-01-31T03:21:55.860Z,5.09
2023-01-31T03:24:26.308Z,5.35
2023-01-31T03:26:56.127Z,5.22
2023-01-31T03:29:26.308Z,5.28
2023-01-31T03:32:00.053Z,5.04
2023-01-31T03:34:28.203Z,5.06
2023-01-31T03:37:19.018Z,4.92
2023-01-31T03:39:52.662Z,4.69
2023-01-31T03:42:25.175Z,5.02
2023-01-31T03:44:56.641Z,5.08
2023-01-31T03:47:27.094Z,4.98
2023-01-31T03:49:57.197Z,5.24
2023-01-31T03:52:59.022Z,5.05
2023-01-31T03:55:43.580Z,4.80
2023-01-31T03:58:13.024Z,4.78
2023-01-31T04:00:43.461Z,5.08
2023-01-31T04:03:16.352Z,5.14
2023-01-31T04:05:44.183Z,5.10
2023-01-31T04:08:12.412Z,5.03
2023-01-31T04:10:40.514Z,4.82
2023-01-31T04:13:08.003Z,4.77
2023-01-31T04:15:35.673Z,4.46
2023-01-31T04:18:03.048Z,4.73
2023-01-31T04:20:30.610Z,4.60
2023-01-31T04:22:59.865Z,4.75
2023-01-31T04:25:27.253Z,4.83
2023-01-31T04:27:54.664Z,4.98
2023-01-31T04:30:22.387Z,4.93
2023-01-31T04:32:49.879Z,4.56
2023-01-31T04:35:17.561Z,4.76
2023-01-31T04:37:45.339Z,4.61
2023-01-31T04:40:16.059Z,4.63
2023-01-31T04:42:43.551Z,4.56
2023-01-31T04:45:11.438Z,4.66
2023-01-31T04:47:38.897Z,4.44
2023-01-31T04:50:07.492Z,4.58
2023-01-31T04:52:35.677Z,4.93
2023-01-31T04:55:03.106Z,4.47
2023-01-31T04:57:30.672Z,4.13
2023-01-31T04:59:58.352Z,4.28
2023-01-31T05:02:25.986Z,4.21
2023-01-31T05:04:53.606Z,4.21
2023-01-31T05:07:21.244Z,4.05
2023-01-31T05:09:48.638Z,3.99
2023-01-31T05:12:16.049Z,4.18
2023-01-31T05:14:43.746Z,4.00
2023-01-31T05:17:11.123Z,4.01
2023-01-31T05:19:38.508Z,3.88
2023-01-31T05:22:06.443Z,3.63
2023-01-31T05:24:34.306Z,3.77
2023-01-31T05:27:02.434Z,4.01
2023-01-31T05:29:32.494Z,4.21
2023-01-31T05:32:01.278Z,4.20
2023-01-31T05:34:30.515Z,4.08
2023-01-31T05:36:58.485Z,4.35
2023-01-31T05:39:25.977Z,4.08
2023-01-31T05:41:53.468Z,4.26
2023-01-31T05:44:21.638Z,4.44
2023-01-31T05:46:49.253Z,4.23
2023-01-31T05:49:16.969Z,4.18
2023-01-31T05:51:44.633Z,4.68
2023-01-31T05:54:12.635Z,4.77
2023-01-31T05:56:40.186Z,4.93
2023-01-31T05:59:07.962Z,5.28
2023-01-31T06:01:35.711Z,5.20
2023-01-31T06:04:03.460Z,5.38
2023-01-31T06:06:30.887Z,5.57
2023-01-31T06:08:58.863Z,5.71
2023-01-31T06:11:26.626Z,5.78
2023-01-31T06:13:57.620Z,5.68
2023-01-31T06:16:25.562Z,5.58
2023-01-31T06:18:55.553Z,5.65
2023-01-31T06:21:23.398Z,5.18
2023-01-31T06:23:50.795Z,5.30
2023-01-31T06:26:18.481Z,5.47
2023-01-31T06:28:46.390Z,5.34
2023-01-31T06:31:14.082Z,5.13
2023-01-31T06:33:47.440Z,5.15
2023-01-31T06:36:18.969Z,5.10
2023-01-31T06:38:51.786Z,5.14
2023-01-31T06:41:20.059Z,5.14
2023-01-31T06:43:47.939Z,5.25
2023-01-31T06:46:15.394Z,5.11
2023-01-31T06:48:43.730Z,4.75
2023-01-31T06:51:11.621Z,4.93
2023-01-31T06:53:39.023Z,5.24
2023-01-31T06:56:07.377Z,5.28
2023-01-31T06:58:35.128Z,5.24
2023-01-31T07:01:10.841Z,5.27
2023-01-31T07:03:38.825Z,5.40
2023-01-31T07:06:07.417Z,5.41
2023-01-31T07:08:36.238Z,5.53
2023-01-31T07:11:04.931Z,5.49
2023-01-31T07:13:32.523Z,5.51
2023-01-31T07:16:00.121Z,5.51
2023-01-31T07:18:27.994Z,5.55
2023-01-31T07:20:56.138Z,5.34
2023-01-31T07:23:23.724Z,5.63
2023-01-31T07:25:51.862Z,5.40
2023-01-31T07:28:19.339Z,5.65
2023-01-31T07:30:48.397Z,5.99
2023-01-31T07:33:16.115Z,6.25
2023-01-31T07:35:43.695Z,6.38
2023-01-31T07:38:11.622Z,6.28
2023-01-31T07:40:40.214Z,6.09
2023-01-31T07:43:07.698Z,6.22
2023-01-31T07:45:35.396Z,6.35
2023-01-31T07:48:03.358Z,6.06
2023-01-31T07:50:30.883Z,6.09
2023-01-31T07:52:59.159Z,6.10
2023-01-31T07:55:27.199Z,6.28
2023-01-31T07:57:54.608Z,6.48
2023-01-31T08:00:40.785Z,6.46
2023-01-31T08:03:36.236Z,6.29
2023-01-31T08:06:10.809Z,6.14
2023-01-31T08:08:39.655Z,6.06
2023-01-31T08:11:07.252Z,6.36
2023-01-31T08:13:35.638Z,6.32
2023-01-31T08:16:07.890Z,6.38
2023-01-31T08:18:36.277Z,6.33
2023-01-31T08:21:04.277Z,6.45
2023-01-31T08:23:32.094Z,6.63
2023-01-31T08:26:11.955Z,6.89
2023-01-31T08:28:39.932Z,7.08
2023-01-31T08:31:09.436Z,7.16
2023-01-31T08:33:38.316Z,6.95
2023-01-31T08:36:14.940Z,6.77
2023-01-31T08:38:42.984Z,6.66
2023-01-31T08:41:11.602Z,6.51
2023-01-31T08:43:54.241Z,6.52
2023-01-31T08:46:25.759Z,6.77
2023-01-31T08:48:53.318Z,6.74
2023-01-31T08:51:20.762Z,7.09
2023-01-31T08:53:48.709Z,7.16
2023-01-31T08:56:16.697Z,7.36
2023-01-31T08:58:45.078Z,6.96
2023-01-31T09:01:17.471Z,7.33
2023-01-31T09:03:46.167Z,7.32
2023-01-31T09:06:19.382Z,7.07
2023-01-31T09:08:47.214Z,7.22
2023-01-31T09:11:19.591Z,7.21
2023-01-31T09:13:49.576Z,7.04
2023-01-31T09:16:17.747Z,6.85
2023-01-31T09:18:45.185Z,7.04
2023-01-31T09:21:21.568Z,6.79
2023-01-31T09:23:55.451Z,7.08
2023-01-31T09:26:22.913Z,6.74
2023-01-31T09:28:51.157Z,6.60
2023-01-31T09:31:20.749Z,6.75
2023-01-31T09:33:48.214Z,6.83
2023-01-31T09:36:18.160Z,6.27
2023-01-31T09:38:45.765Z,6.62
2023-01-31T09:41:21.466Z,6.69
2023-01-31T09:43:53.664Z,6.58
2023-01-31T09:46:25.234Z,6.59
2023-01-31T09:48:55.322Z,6.41
2023-01-31T09:51:22.963Z,6.49
2023-01-31T09:53:50.450Z,6.44
2023-01-31T09:56:29.980Z,6.70
2023-01-31T09:59:21.159Z,6.97
2023-01-31T10:02:05.379Z,7.25
2023-01-31T10:04:41.147Z,7.13
2023-01-31T10:07:29.566Z,6.94
2023-01-31T10:10:37.524Z,6.81
2023-01-31T10:13:31.701Z,7.18
2023-01-31T10:16:18.688Z,6.67
2023-01-31T10:18:50.291Z,6.60
2023-01-31T10:21:26.178Z,6.87
2023-01-31T10:23:58.534Z,7.38
2023-01-31T10:26:29.619Z,7.39
2023-01-31T10:29:17.728Z,7.07
2023-01-31T10:31:50.608Z,7.21
2023-01-31T10:34:23.300Z,6.93
2023-01-31T10:37:14.395Z,6.76
2023-01-31T10:39:56.785Z,6.80
2023-01-31T10:42:32.630Z,6.96
2023-01-31T10:45:08.671Z,6.68
2023-01-31T10:47:39.546Z,6.94
2023-01-31T10:51:02.603Z,7.19
2023-01-31T10:54:04.802Z,7.18
2023-01-31T10:56:37.941Z,7.21
2023-01-31T10:59:08.144Z,7.64
2023-01-31T11:01:36.279Z,7.97
2023-01-31T11:04:21.069Z,7.50
2023-01-31T11:06:48.815Z,7.47
2023-01-31T11:09:16.791Z,7.37
2023-01-31T11:12:13.710Z,7.32
2023-01-31T11:14:41.810Z,7.53
2023-01-31T11:17:22.195Z,7.60
2023-01-31T11:19:54.608Z,7.73
2023-01-31T11:22:30.197Z,7.80
2023-01-31T11:24:59.742Z,7.73
2023-01-31T11:27:41.100Z,7.59
2023-01-31T11:30:31.558Z,7.77
2023-01-31T11:32:59.044Z,7.65
2023-01-31T11:35:29.195Z,7.40
2023-01-31T11:38:03.527Z,7.58
2023-01-31T11:40:32.936Z,7.48
2023-01-31T11:43:13.898Z,7.49
2023-01-31T11:45:46.544Z,7.08
2023-01-31T11:48:18.027Z,7.40
2023-01-31T11:50:51.757Z,7.43
2023-01-31T11:53:29.841Z,7.94
2023-01-31T11:56:07.978Z,7.78
2023-01-31T11:58:37.983Z,7.95
2023-01-31T12:01:08.305Z,7.38
2023-01-31T12:03:37.337Z,7.48
2023-01-31T12:06:09.794Z,7.55
2023-01-31T12:08:42.126Z,7.58
2023-01-31T12:11:30.129Z,7.53
2023-01-31T12:14:07.052Z,7.42
2023-01-31T12:16:36.747Z,7.62
2023-01-31T12:19:13.527Z,7.35
2023-01-31T12:22:21.870Z,7.29
2023-01-31T12:24:52.488Z,7.48
2023-01-31T12:27:28.883Z,7.47
2023-01-31T12:30:15.220Z,7.61
2023-01-31T12:33:08.752Z,7.53
2023-01-31T12:36:07.483Z,7.24
2023-01-31T12:38:56.382Z,7.05
2023-01-31T12:41:34.109Z,7.66
2023-01-31T12:44:16.142Z,7.42
2023-01-31T12:47:10.644Z,7.28
2023-01-31T12:49:41.786Z,7.48
2023-01-31T12:52:21.406Z,7.32
2023-01-31T12:54:55.077Z,7.02
2023-01-31T12:57:54.381Z,7.44
2023-01-31T13:00:33.178Z,7.43
2023-01-31T13:03:33.818Z,7.12
2023-01-31T13:06:09.288Z,7.08
2023-01-31T13:08:38.156Z,7.12
2023-01-31T13:11:13.443Z,7.00
2023-01-31T13:14:00.346Z,7.46
2023-01-31T13:16:36.395Z,7.36
2023-01-31T13:19:06.666Z,7.68
2023-01-31T13:21:38.677Z,7.25
2023-01-31T13:24:12.591Z,7.64
2023-01-31T13:27:02.241Z,7.59
2023-01-31T13:29:34.728Z,7.26
2023-01-31T13:32:11.222Z,7.64
2023-01-31T13:34:51.811Z,7.16
2023-01-31T13:37:22.236Z,7.07
2023-01-31T13:39:53.766Z,7.30
2023-01-31T13:42:21.357Z,7.58
2023-01-31T13:44:50.140Z,7.33
2023-01-31T13:47:24.820Z,7.36
2023-01-31T13:50:27.855Z,7.00
2023-01-31T13:52:56.917Z,6.84
2023-01-31T13:55:32.913Z,7.18
2023-01-31T13:58:06.865Z,7.11
2023-01-31T14:00:38.079Z,6.93
2023-01-31T14:03:10.082Z,7.26
2023-01-31T14:05:44.714Z,6.97
2023-01-31T14:08:32.315Z,7.11
2023-01-31T14:11:24.790Z,6.81
2023-01-31T14:14:19.567Z,6.76
2023-01-31T14:16:49.824Z,6.85
2023-01-31T14:19:19.187Z,6.69
2023-01-31T14:22:02.107Z,7.10
2023-01-31T14:24:53.187Z,7.19
2023-01-31T14:27:22.017Z,7.06
2023-01-31T14:30:21.445Z,7.13
2023-01-31T14:33:06.892Z,7.08
2023-01-31T14:36:42.513Z,7.35
2023-01-31T14:39:30.396Z,7.26
2023-01-31T14:42:21.160Z,7.27
2023-01-31T14:45:03.450Z,6.81
2023-01-31T14:48:03.293Z,6.84
2023-01-31T14:50:46.224Z,6.69
2023-01-31T14:53:50.295Z,6.77
2023-01-31T14:56:42.001Z,6.70
2023-01-31T14:59:27.664Z,6.53
2023-01-31T15:01:55.865Z,6.38
2023-01-31T15:04:25.276Z,6.50
2023-01-31T15:06:53.763Z,6.15
2023-01-31T15:09:21.491Z,6.39
2023-01-31T15:11:50.531Z,6.54
2023-01-31T15:14:33.761Z,6.55
2023-01-31T15:17:35.639Z,6.54
2023-01-31T15:20:23.274Z,6.02
2023-01-31T15:22:52.965Z,6.39
2023-01-31T15:25:32.932Z,6.37
2023-01-31T15:28:01.246Z,6.20
2023-01-31T15:30:30.227Z,6.39
2023-01-31T15:33:06.457Z,6.45
2023-01-31T15:35:42.985Z,6.38
2023-01-31T15:38:20.645Z,6.20
2023-01-31T15:40:48.398Z,6.42
2023-01-31T15:43:23.968Z,6.48
2023-01-31T15:45:52.498Z,6.69
2023-01-31T15:48:21.795Z,6.43
2023-01-31T15:50:56.684Z,6.53
2023-01-31T15:53:26.481Z,6.30
2023-01-31T15:55:56.570Z,6.69
2023-01-31T15:58:26.651Z,6.85
2023-01-31T16:00:59.271Z,6.86
2023-01-31T16:03:28.912Z,6.98
2023-01-31T16:05:58.241Z,6.81
2023-01-31T16:08:37.134Z,6.77
2023-01-31T16:11:07.433Z,6.99
2023-01-31T16:13:38.914Z,7.12
2023-01-31T16:16:10.480Z,7.36
2023-01-31T16:18:38.466Z,7.30
2023-01-31T16:21:24.609Z,7.58
2023-01-31T16:24:08.354Z,7.50
2023-01-31T16:26:38.956Z,7.44
2023-01-31T16:29:09.831Z,7.33
2023-01-31T16:31:45.807Z,7.49
2023-01-31T16:34:24.173Z,7.49
2023-01-31T16:37:01.118Z,7.51
2023-01-31T16:39:48.289Z,7.65
2023-01-31T16:42:15.853Z,7.53
2023-01-31T16:44:45.731Z,7.64
2023-01-31T16:47:42.150Z,7.66
2023-01-31T16:50:41.883Z,7.74
2023-01-31T16:53:34.005Z,7.38
2023-01-31T16:56:13.982Z,7.58
2023-01-31T16:58:53.252Z,7.60
2023-01-31T17:01:29.940Z,7.63
2023-01-31T17:04:09.503Z,7.73
2023-01-31T17:06:37.842Z,7.79
2023-01-31T17:09:07.712Z,7.98
2023-01-31T17:11:42.691Z,8.13
2023-01-31T17:14:11.448Z,7.87
2023-01-31T17:16:39.052Z,7.90
2023-01-31T17:19:06.469Z,8.05
2023-01-31T17:21:40.434Z,8.10
2023-01-31T17:24:19.334Z,8.18
2023-01-31T17:26:47.261Z,7.90
2023-01-31T17:29:14.661Z,7.84
2023-01-31T17:31:42.313Z,7.72
2023-01-31T17:34:14.384Z,7.81
2023-01-31T17:36:43.151Z,7.77
2023-01-31T17:39:10.902Z,7.58
2023-01-31T17:41:41.132Z,7.71
2023-01-31T17:44:13.578Z,7.75
2023-01-31T17:46:43.002Z,7.84
2023-01-31T17:49:10.679Z,7.79
2023-01-31T17:51:38.827Z,7.68
2023-01-31T17:54:06.731Z,7.79
2023-01-31T17:56:34.478Z,7.80
2023-01-31T17:59:02.129Z,7.85
2023-01-31T18:01:29.957Z,7.96
2023-01-31T18:04:00.671Z,7.81
2023-01-31T18:06:28.131Z,7.77
2023-01-31T18:08:55.638Z,7.86
2023-01-31T18:11:23.396Z,7.84
2023-01-31T18:13:50.873Z,7.64
2023-01-31T18:16:21.461Z,7.65
2023-01-31T18:18:49.888Z,7.72
2023-01-31T18:21:20.378Z,7.69
2023-01-31T18:23:52.375Z,7.46
2023-01-31T18:26:20.437Z,7.58
2023-01-31T18:28:48.939Z,7.59
2023-01-31T18:31:17.344Z,7.80
2023-01-31T18:33:47.121Z,7.95
2023-01-31T18:36:20.272Z,8.20
2023-01-31T18:38:48.906Z,8.27
2023-01-31T18:41:18.954Z,8.20
2023-01-31T18:43:48.014Z,8.23
2023-01-31T18:46:16.931Z,8.16
2023-01-31T18:48:44.632Z,8.04
2023-01-31T18:51:14.080Z,8.15
2023-01-31T18:53:43.782Z,8.21
2023-01-31T18:56:13.782Z,8.07
2023-01-31T18:58:41.621Z,8.25
2023-01-31T19:01:19.512Z,7.94
2023-01-31T19:03:50.150Z,8.02
2023-01-31T19:06:32.073Z,8.42
2023-01-31T19:08:59.871Z,8.42
2023-01-31T19:11:28.594Z,7.80
2023-01-31T19:13:56.230Z,7.77
2023-01-31T19:16:29.065Z,7.77
2023-01-31T19:18:56.997Z,7.75
2023-01-31T19:21:29.925Z,7.41
2023-01-31T19:23:59.581Z,7.37
2023-01-31T19:26:28.386Z,7.39
2023-01-31T19:28:56.645Z,7.83
2023-01-31T19:31:25.665Z,7.42
2023-01-31T19:34:01.467Z,6.77
2023-01-31T19:36:31.443Z,6.36
2023-01-31T19:39:00.386Z,6.19
2023-01-31T19:41:28.609Z,6.00
2023-01-31T19:43:57.971Z,6.09
2023-01-31T19:46:27.738Z,5.74
2023-01-31T19:48:56.187Z,5.94
2023-01-31T19:51:25.241Z,6.27
2023-01-31T19:53:59.000Z,6.49
2023-01-31T19:56:26.851Z,5.83
2023-01-31T19:58:54.535Z,5.86
2023-01-31T20:01:22.423Z,5.73
2023-01-31T20:03:50.218Z,5.91
2023-01-31T20:06:20.915Z,6.26
2023-01-31T20:08:56.845Z,6.27
2023-01-31T20:11:26.081Z,6.14
2023-01-31T20:13:54.806Z,5.98
2023-01-31T20:16:22.643Z,6.12
2023-01-31T20:18:55.435Z,6.02
2023-01-31T20:21:22.874Z,5.62
2023-01-31T20:23:50.682Z,5.56
2023-01-31T20:26:19.520Z,5.55
2023-01-31T20:28:47.114Z,5.69
2023-01-31T20:31:15.418Z,5.65
2023-01-31T20:33:43.092Z,5.15
2023-01-31T20:36:13.313Z,5.47
2023-01-31T20:38:41.122Z,5.22
2023-01-31T20:41:09.236Z,5.42
2023-01-31T20:43:37.316Z,5.74
2023-01-31T20:46:06.997Z,5.87
2023-01-31T20:48:34.675Z,5.59
2023-01-31T20:51:02.363Z,5.80
2023-01-31T20:53:30.697Z,5.90
2023-01-31T20:56:03.334Z,5.79
2023-01-31T20:58:33.242Z,5.97
2023-01-31T21:01:03.485Z,5.61
2023-01-31T21:03:33.270Z,5.59
2023-01-31T21:06:01.672Z,5.69
2023-01-31T21:08:29.947Z,5.48
2023-01-31T21:11:00.160Z,5.66
2023-01-31T21:13:31.549Z,5.82
2023-01-31T21:16:04.277Z,5.55
2023-01-31T21:18:32.526Z,5.76
2023-01-31T21:21:03.814Z,5.42
2023-01-31T21:23:31.185Z,5.22
2023-01-31T21:26:06.850Z,5.43
2023-01-31T21:28:34.792Z,5.24
2023-01-31T21:31:05.200Z,5.54
2023-01-31T21:33:32.652Z,5.56
2023-01-31T21:36:10.447Z,5.89
2023-01-31T21:38:38.158Z,5.48
2023-01-31T21:41:24.933Z,5.55
2023-01-31T21:43:52.562Z,5.59
2023-01-31T21:46:20.381Z,5.79
2023-01-31T21:48:48.044Z,5.83
2023-01-31T21:51:17.018Z,5.90
2023-01-31T21:53:45.491Z,5.90
2023-01-31T21:56:18.597Z,5.89
2023-01-31T21:58:46.734Z,6.18
2023-01-31T22:01:18.261Z,6.25
2023-01-31T22:03:50.201Z,6.31
2023-01-31T22:06:21.149Z,6.39
2023-01-31T22:08:57.157Z,6.64
2023-01-31T22:11:25.404Z,6.67
2023-01-31T22:13:56.052Z,6.76
2023-01-31T22:16:23.858Z,6.75
2023-01-31T22:18:51.560Z,6.90
2023-01-31T22:21:26.206Z,6.81
2023-01-31T22:23:55.452Z,6.93
2023-01-31T22:26:25.505Z,7.02
2023-01-31T22:28:54.913Z,6.78
2023-01-31T22:31:22.971Z,6.88
2023-01-31T22:33:50.672Z,6.95
2023-01-31T22:36:18.772Z,7.06
2023-01-31T22:38:46.635Z,6.83
2023-01-31T22:41:15.428Z,6.98
2023-01-31T22:43:45.091Z,7.07
2023-01-31T22:46:15.165Z,6.86
2023-01-31T22:48:42.820Z,6.74
2023-01-31T22:51:12.118Z,6.76
2023-01-31T22:53:40.478Z,6.67
2023-01-31T22:56:13.658Z,6.74
2023-01-31T22:58:41.639Z,7.02
2023-01-31T23:01:18.004Z,6.98
2023-01-31T23:03:46.275Z,7.04
2023-01-31T23:06:14.307Z,7.14
2023-01-31T23:08:42.173Z,7.12
2023-01-31T23:11:12.612Z,7.13
2023-01-31T23:13:40.642Z,7.18
2023-01-31T23:16:09.923Z,7.26
2023-01-31T23:18:37.637Z,7.21
2023-01-31T23:21:10.098Z,7.10
2023-01-31T23:23:37.836Z,7.17
2023-01-31T23:26:05.474Z,7.29
2023-01-31T23:28:33.164Z,7.19
2023-01-31T23:31:01.274Z,7.20
2023-01-31T23:33:28.926Z,7.10
2023-01-31T23:35:56.348Z,7.21
2023-01-31T23:38:24.409Z,7.24
2023-01-31T23:40:53.092Z,7.16
2023-01-31T23:43:21.618Z,7.23
2023-01-31T23:45:49.603Z,7.08
2023-01-31T23:48:17.349Z,7.25
2023-01-31T23:50:44.760Z,7.36
2023-01-31T23:53:12.501Z,7.41
2023-01-31T23:55:40.270Z,7.36
2023-01-31T23:58:07.707Z,7.23
